sensor_id;sensor_type;location;lat;lon;timestamp;P1;durP1;ratioP1;P2;durP2;ratioP2
20110;SDS011;10216;42.658;23.248;2023-04-04T00:01:14;2.67;;;2.30;;
20110;SDS011;10216;42.658;23.248;2023-04-04T00:03:41;0.50;;;0.50;;
20110;SDS011;10216;42.658;23.248;2023-04-04T00:06:06;1.00;;;0.50;;
20110;SDS011;10216;42.658;23.248;2023-04-04T00:08:31;0.43;;;0.43;;
20110;SDS011;10216;42.658;23.248;2023-04-04T00:10:57;1.57;;;1.10;;
20110;SDS011;10216;42.658;23.248;2023-04-04T00:13:23;1.70;;;0.57;;
20110;SDS011;10216;42.658;23.248;2023-04-04T00:15:50;0.27;;;0.27;;
20110;SDS011;10216;42.658;23.248;2023-04-04T00:18:15;0.43;;;0.43;;
20110;SDS011;10216;42.658;23.248;2023-04-04T00:20:40;0.20;;;0.20;;
20110;SDS011;10216;42.658;23.248;2023-04-04T00:23:06;0.10;;;0.10;;
20110;SDS011;10216;42.658;23.248;2023-04-04T00:25:31;0.20;;;0.20;;
20110;SDS011;10216;42.658;23.248;2023-04-04T00:27:56;0.23;;;0.23;;
20110;SDS011;10216;42.658;23.248;2023-04-04T00:30:24;0.37;;;0.37;;
20110;SDS011;10216;42.658;23.248;2023-04-04T00:32:50;0.37;;;0.37;;
20110;SDS011;10216;42.658;23.248;2023-04-04T00:35:15;0.30;;;0.30;;
20110;SDS011;10216;42.658;23.248;2023-04-04T00:37:40;0.67;;;0.67;;
20110;SDS011;10216;42.658;23.248;2023-04-04T00:40:06;2.17;;;1.23;;
20110;SDS011;10216;42.658;23.248;2023-04-04T00:42:32;0.60;;;0.50;;
20110;SDS011;10216;42.658;23.248;2023-04-04T00:44:58;0.60;;;0.60;;
20110;SDS011;10216;42.658;23.248;2023-04-04T00:47:24;0.50;;;0.50;;
20110;SDS011;10216;42.658;23.248;2023-04-04T00:49:50;0.23;;;0.23;;
20110;SDS011;10216;42.658;23.248;2023-04-04T00:52:15;0.53;;;0.53;;
20110;SDS011;10216;42.658;23.248;2023-04-04T00:54:43;0.50;;;0.50;;
20110;SDS011;10216;42.658;23.248;2023-04-04T00:57:08;1.03;;;0.80;;
20110;SDS011;10216;42.658;23.248;2023-04-04T00:59:34;0.70;;;0.70;;
20110;SDS011;10216;42.658;23.248;2023-04-04T01:02:00;0.87;;;0.50;;
20110;SDS011;10216;42.658;23.248;2023-04-04T01:04:25;0.50;;;0.50;;
20110;SDS011;10216;42.658;23.248;2023-04-04T01:06:54;0.50;;;0.50;;
20110;SDS011;10216;42.658;23.248;2023-04-04T01:09:20;0.23;;;0.23;;
20110;SDS011;10216;42.658;23.248;2023-04-04T01:11:45;0.27;;;0.27;;
20110;SDS011;10216;42.658;23.248;2023-04-04T01:14:10;0.30;;;0.30;;
20110;SDS011;10216;42.658;23.248;2023-04-04T01:16:36;0.60;;;0.60;;
20110;SDS011;10216;42.658;23.248;2023-04-04T01:19:01;0.20;;;0.20;;
20110;SDS011;10216;42.658;23.248;2023-04-04T01:21:28;0.20;;;0.20;;
20110;SDS011;10216;42.658;23.248;2023-04-04T01:24:00;0.40;;;0.40;;
20110;SDS011;10216;42.658;23.248;2023-04-04T01:26:27;0.33;;;0.33;;
20110;SDS011;10216;42.658;23.248;2023-04-04T01:28:55;0.20;;;0.20;;
20110;SDS011;10216;42.658;23.248;2023-04-04T01:31:25;0.40;;;0.40;;
20110;SDS011;10216;42.658;23.248;2023-04-04T01:33:57;0.30;;;0.30;;
20110;SDS011;10216;42.658;23.248;2023-04-04T01:36:26;0.40;;;0.40;;
20110;SDS011;10216;42.658;23.248;2023-04-04T01:39:00;0.20;;;0.20;;
20110;SDS011;10216;42.658;23.248;2023-04-04T01:41:26;0.37;;;0.37;;
20110;SDS011;10216;42.658;23.248;2023-04-04T01:43:54;0.30;;;0.30;;
20110;SDS011;10216;42.658;23.248;2023-04-04T01:46:20;0.60;;;0.60;;
20110;SDS011;10216;42.658;23.248;2023-04-04T01:48:46;0.40;;;0.30;;
20110;SDS011;10216;42.658;23.248;2023-04-04T01:51:12;1.10;;;1.10;;
20110;SDS011;10216;42.658;23.248;2023-04-04T01:53:38;0.30;;;0.30;;
20110;SDS011;10216;42.658;23.248;2023-04-04T01:56:03;0.50;;;0.20;;
20110;SDS011;10216;42.658;23.248;2023-04-04T01:58:28;0.20;;;0.20;;
20110;SDS011;10216;42.658;23.248;2023-04-04T02:00:54;0.50;;;0.50;;
20110;SDS011;10216;42.658;23.248;2023-04-04T02:03:20;0.30;;;0.30;;
20110;SDS011;10216;42.658;23.248;2023-04-04T02:05:45;0.73;;;0.73;;
20110;SDS011;10216;42.658;23.248;2023-04-04T02:08:11;0.20;;;0.20;;
20110;SDS011;10216;42.658;23.248;2023-04-04T02:10:36;0.40;;;0.40;;
20110;SDS011;10216;42.658;23.248;2023-04-04T02:13:01;0.50;;;0.40;;
20110;SDS011;10216;42.658;23.248;2023-04-04T02:15:26;0.27;;;0.27;;
20110;SDS011;10216;42.658;23.248;2023-04-04T02:17:52;0.27;;;0.27;;
20110;SDS011;10216;42.658;23.248;2023-04-04T02:20:17;0.13;;;0.13;;
20110;SDS011;10216;42.658;23.248;2023-04-04T02:22:48;0.20;;;0.20;;
20110;SDS011;10216;42.658;23.248;2023-04-04T02:25:14;0.57;;;0.57;;
20110;SDS011;10216;42.658;23.248;2023-04-04T02:27:39;0.20;;;0.20;;
20110;SDS011;10216;42.658;23.248;2023-04-04T02:30:04;0.20;;;0.20;;
20110;SDS011;10216;42.658;23.248;2023-04-04T02:32:30;0.20;;;0.20;;
20110;SDS011;10216;42.658;23.248;2023-04-04T02:34:55;0.37;;;0.37;;
20110;SDS011;10216;42.658;23.248;2023-04-04T02:37:20;0.20;;;0.20;;
20110;SDS011;10216;42.658;23.248;2023-04-04T02:39:46;0.57;;;0.57;;
20110;SDS011;10216;42.658;23.248;2023-04-04T02:42:11;0.20;;;0.20;;
20110;SDS011;10216;42.658;23.248;2023-04-04T02:44:37;0.30;;;0.30;;
20110;SDS011;10216;42.658;23.248;2023-04-04T02:47:02;1.13;;;0.67;;
20110;SDS011;10216;42.658;23.248;2023-04-04T02:49:27;0.20;;;0.20;;
20110;SDS011;10216;42.658;23.248;2023-04-04T02:51:53;0.10;;;0.10;;
20110;SDS011;10216;42.658;23.248;2023-04-04T02:54:18;0.40;;;0.40;;
20110;SDS011;10216;42.658;23.248;2023-04-04T02:56:44;0.50;;;0.50;;
20110;SDS011;10216;42.658;23.248;2023-04-04T02:59:09;0.20;;;0.20;;
20110;SDS011;10216;42.658;23.248;2023-04-04T03:01:34;0.77;;;0.70;;
20110;SDS011;10216;42.658;23.248;2023-04-04T03:04:00;0.20;;;0.20;;
20110;SDS011;10216;42.658;23.248;2023-04-04T03:06:30;0.33;;;0.33;;
20110;SDS011;10216;42.658;23.248;2023-04-04T03:08:55;0.70;;;0.70;;
20110;SDS011;10216;42.658;23.248;2023-04-04T03:11:20;0.40;;;0.40;;
20110;SDS011;10216;42.658;23.248;2023-04-04T03:13:45;0.40;;;0.30;;
20110;SDS011;10216;42.658;23.248;2023-04-04T03:16:11;0.10;;;0.10;;
20110;SDS011;10216;42.658;23.248;2023-04-04T03:18:39;0.47;;;0.47;;
20110;SDS011;10216;42.658;23.248;2023-04-04T03:21:04;0.60;;;0.60;;
20110;SDS011;10216;42.658;23.248;2023-04-04T03:23:29;0.40;;;0.40;;
20110;SDS011;10216;42.658;23.248;2023-04-04T03:25:54;0.40;;;0.40;;
20110;SDS011;10216;42.658;23.248;2023-04-04T03:28:20;0.30;;;0.30;;
20110;SDS011;10216;42.658;23.248;2023-04-04T03:30:45;0.20;;;0.20;;
20110;SDS011;10216;42.658;23.248;2023-04-04T03:33:11;0.43;;;0.43;;
20110;SDS011;10216;42.658;23.248;2023-04-04T03:35:40;0.33;;;0.33;;
20110;SDS011;10216;42.658;23.248;2023-04-04T03:38:06;0.40;;;0.40;;
20110;SDS011;10216;42.658;23.248;2023-04-04T03:40:31;0.67;;;0.67;;
20110;SDS011;10216;42.658;23.248;2023-04-04T03:42:56;0.23;;;0.23;;
20110;SDS011;10216;42.658;23.248;2023-04-04T03:45:22;0.40;;;0.40;;
20110;SDS011;10216;42.658;23.248;2023-04-04T03:47:48;0.40;;;0.40;;
20110;SDS011;10216;42.658;23.248;2023-04-04T03:50:13;0.30;;;0.30;;
20110;SDS011;10216;42.658;23.248;2023-04-04T03:52:38;0.53;;;0.53;;
20110;SDS011;10216;42.658;23.248;2023-04-04T03:55:04;2.87;;;1.43;;
20110;SDS011;10216;42.658;23.248;2023-04-04T03:57:31;1.20;;;1.10;;
20110;SDS011;10216;42.658;23.248;2023-04-04T03:59:56;1.40;;;1.27;;
20110;SDS011;10216;42.658;23.248;2023-04-04T04:02:22;1.17;;;0.83;;
20110;SDS011;10216;42.658;23.248;2023-04-04T04:04:47;0.60;;;0.60;;
20110;SDS011;10216;42.658;23.248;2023-04-04T04:07:12;0.50;;;0.50;;
20110;SDS011;10216;42.658;23.248;2023-04-04T04:09:37;0.30;;;0.30;;
20110;SDS011;10216;42.658;23.248;2023-04-04T04:12:03;0.80;;;0.70;;
20110;SDS011;10216;42.658;23.248;2023-04-04T04:14:28;4.40;;;3.07;;
20110;SDS011;10216;42.658;23.248;2023-04-04T04:16:53;4.57;;;3.80;;
20110;SDS011;10216;42.658;23.248;2023-04-04T04:19:18;12.17;;;5.70;;
20110;SDS011;10216;42.658;23.248;2023-04-04T04:21:44;3.97;;;3.00;;
20110;SDS011;10216;42.658;23.248;2023-04-04T04:24:11;2.33;;;1.80;;
20110;SDS011;10216;42.658;23.248;2023-04-04T04:26:36;0.70;;;0.70;;
20110;SDS011;10216;42.658;23.248;2023-04-04T04:29:02;0.20;;;0.20;;
20110;SDS011;10216;42.658;23.248;2023-04-04T04:31:27;0.50;;;0.50;;
20110;SDS011;10216;42.658;23.248;2023-04-04T04:33:52;0.60;;;0.60;;
20110;SDS011;10216;42.658;23.248;2023-04-04T04:36:17;0.43;;;0.43;;
20110;SDS011;10216;42.658;23.248;2023-04-04T04:38:43;0.73;;;0.73;;
20110;SDS011;10216;42.658;23.248;2023-04-04T04:41:08;0.30;;;0.30;;
20110;SDS011;10216;42.658;23.248;2023-04-04T04:43:33;0.53;;;0.53;;
20110;SDS011;10216;42.658;23.248;2023-04-04T04:46:00;0.30;;;0.30;;
20110;SDS011;10216;42.658;23.248;2023-04-04T04:48:26;0.40;;;0.40;;
20110;SDS011;10216;42.658;23.248;2023-04-04T04:50:51;0.17;;;0.17;;
20110;SDS011;10216;42.658;23.248;2023-04-04T04:53:16;0.30;;;0.30;;
20110;SDS011;10216;42.658;23.248;2023-04-04T04:55:42;0.93;;;0.50;;
20110;SDS011;10216;42.658;23.248;2023-04-04T04:58:08;0.67;;;0.67;;
20110;SDS011;10216;42.658;23.248;2023-04-04T05:00:35;0.30;;;0.30;;
20110;SDS011;10216;42.658;23.248;2023-04-04T05:03:00;0.20;;;0.20;;
20110;SDS011;10216;42.658;23.248;2023-04-04T05:05:26;0.60;;;0.60;;
20110;SDS011;10216;42.658;23.248;2023-04-04T05:07:52;0.40;;;0.40;;
20110;SDS011;10216;42.658;23.248;2023-04-04T05:10:17;0.60;;;0.60;;
20110;SDS011;10216;42.658;23.248;2023-04-04T05:12:42;0.63;;;0.63;;
20110;SDS011;10216;42.658;23.248;2023-04-04T05:15:09;0.30;;;0.30;;
20110;SDS011;10216;42.658;23.248;2023-04-04T05:17:34;0.30;;;0.30;;
20110;SDS011;10216;42.658;23.248;2023-04-04T05:19:59;0.27;;;0.27;;
20110;SDS011;10216;42.658;23.248;2023-04-04T05:22:25;0.60;;;0.60;;
20110;SDS011;10216;42.658;23.248;2023-04-04T05:24:52;0.40;;;0.40;;
20110;SDS011;10216;42.658;23.248;2023-04-04T05:27:17;1.00;;;0.90;;
20110;SDS011;10216;42.658;23.248;2023-04-04T05:29:42;0.43;;;0.43;;
20110;SDS011;10216;42.658;23.248;2023-04-04T05:32:08;1.57;;;1.47;;
20110;SDS011;10216;42.658;23.248;2023-04-04T05:34:33;0.80;;;0.60;;
20110;SDS011;10216;42.658;23.248;2023-04-04T05:36:58;1.47;;;0.77;;
20110;SDS011;10216;42.658;23.248;2023-04-04T05:39:24;0.77;;;0.77;;
20110;SDS011;10216;42.658;23.248;2023-04-04T05:41:49;1.27;;;0.97;;
20110;SDS011;10216;42.658;23.248;2023-04-04T05:44:14;1.10;;;0.90;;
20110;SDS011;10216;42.658;23.248;2023-04-04T05:46:40;0.57;;;0.43;;
20110;SDS011;10216;42.658;23.248;2023-04-04T05:49:05;1.73;;;0.90;;
20110;SDS011;10216;42.658;23.248;2023-04-04T05:51:30;1.20;;;1.10;;
20110;SDS011;10216;42.658;23.248;2023-04-04T05:53:56;1.10;;;0.93;;
20110;SDS011;10216;42.658;23.248;2023-04-04T05:56:21;0.83;;;0.83;;
20110;SDS011;10216;42.658;23.248;2023-04-04T05:58:51;1.37;;;1.10;;
20110;SDS011;10216;42.658;23.248;2023-04-04T06:01:17;1.20;;;1.10;;
20110;SDS011;10216;42.658;23.248;2023-04-04T06:03:42;1.87;;;1.00;;
20110;SDS011;10216;42.658;23.248;2023-04-04T06:06:07;1.00;;;1.00;;
20110;SDS011;10216;42.658;23.248;2023-04-04T06:08:33;0.57;;;0.57;;
20110;SDS011;10216;42.658;23.248;2023-04-04T06:10:58;0.63;;;0.63;;
20110;SDS011;10216;42.658;23.248;2023-04-04T06:13:23;0.50;;;0.50;;
20110;SDS011;10216;42.658;23.248;2023-04-04T06:15:48;0.60;;;0.60;;
20110;SDS011;10216;42.658;23.248;2023-04-04T06:18:14;1.13;;;1.03;;
20110;SDS011;10216;42.658;23.248;2023-04-04T06:20:41;1.07;;;1.00;;
20110;SDS011;10216;42.658;23.248;2023-04-04T06:23:06;1.40;;;0.93;;
20110;SDS011;10216;42.658;23.248;2023-04-04T06:25:33;0.70;;;0.70;;
20110;SDS011;10216;42.658;23.248;2023-04-04T06:27:59;0.60;;;0.50;;
20110;SDS011;10216;42.658;23.248;2023-04-04T06:30:24;1.00;;;1.00;;
20110;SDS011;10216;42.658;23.248;2023-04-04T06:32:50;0.87;;;0.70;;
20110;SDS011;10216;42.658;23.248;2023-04-04T06:35:18;0.90;;;0.83;;
20110;SDS011;10216;42.658;23.248;2023-04-04T06:37:44;0.67;;;0.67;;
20110;SDS011;10216;42.658;23.248;2023-04-04T06:40:09;1.00;;;0.83;;
20110;SDS011;10216;42.658;23.248;2023-04-04T06:42:34;0.40;;;0.37;;
20110;SDS011;10216;42.658;23.248;2023-04-04T06:45:00;0.50;;;0.50;;
20110;SDS011;10216;42.658;23.248;2023-04-04T06:47:25;0.50;;;0.50;;
20110;SDS011;10216;42.658;23.248;2023-04-04T06:49:51;0.40;;;0.40;;
20110;SDS011;10216;42.658;23.248;2023-04-04T06:52:16;0.10;;;0.10;;
20110;SDS011;10216;42.658;23.248;2023-04-04T06:54:42;0.17;;;0.13;;
20110;SDS011;10216;42.658;23.248;2023-04-04T06:57:07;0.20;;;0.20;;
20110;SDS011;10216;42.658;23.248;2023-04-04T06:59:32;0.20;;;0.20;;
20110;SDS011;10216;42.658;23.248;2023-04-04T07:01:58;0.83;;;0.30;;
20110;SDS011;10216;42.658;23.248;2023-04-04T07:04:23;0.20;;;0.20;;
20110;SDS011;10216;42.658;23.248;2023-04-04T07:06:48;0.30;;;0.30;;
20110;SDS011;10216;42.658;23.248;2023-04-04T07:09:13;0.20;;;0.20;;
20110;SDS011;10216;42.658;23.248;2023-04-04T07:11:39;0.73;;;0.40;;
20110;SDS011;10216;42.658;23.248;2023-04-04T07:14:04;0.10;;;0.10;;
20110;SDS011;10216;42.658;23.248;2023-04-04T07:16:30;0.10;;;0.10;;
20110;SDS011;10216;42.658;23.248;2023-04-04T07:18:55;0.33;;;0.33;;
20110;SDS011;10216;42.658;23.248;2023-04-04T07:21:20;0.13;;;0.13;;
20110;SDS011;10216;42.658;23.248;2023-04-04T07:23:46;0.10;;;0.10;;
20110;SDS011;10216;42.658;23.248;2023-04-04T07:26:11;0.10;;;0.10;;
20110;SDS011;10216;42.658;23.248;2023-04-04T07:28:36;0.10;;;0.10;;
20110;SDS011;10216;42.658;23.248;2023-04-04T07:31:02;0.10;;;0.10;;
20110;SDS011;10216;42.658;23.248;2023-04-04T07:33:27;0.10;;;0.10;;
20110;SDS011;10216;42.658;23.248;2023-04-04T07:35:52;0.23;;;0.23;;
20110;SDS011;10216;42.658;23.248;2023-04-04T07:38:18;0.10;;;0.10;;
20110;SDS011;10216;42.658;23.248;2023-04-04T07:40:44;0.10;;;0.10;;
20110;SDS011;10216;42.658;23.248;2023-04-04T07:43:09;0.10;;;0.10;;
20110;SDS011;10216;42.658;23.248;2023-04-04T07:45:34;0.10;;;0.10;;
20110;SDS011;10216;42.658;23.248;2023-04-04T07:48:00;0.10;;;0.10;;
20110;SDS011;10216;42.658;23.248;2023-04-04T07:50:26;0.43;;;0.43;;
20110;SDS011;10216;42.658;23.248;2023-04-04T07:52:51;0.10;;;0.10;;
20110;SDS011;10216;42.658;23.248;2023-04-04T07:55:18;0.10;;;0.10;;
20110;SDS011;10216;42.658;23.248;2023-04-04T07:57:44;0.20;;;0.20;;
20110;SDS011;10216;42.658;23.248;2023-04-04T08:00:10;0.20;;;0.20;;
20110;SDS011;10216;42.658;23.248;2023-04-04T08:02:36;0.10;;;0.10;;
20110;SDS011;10216;42.658;23.248;2023-04-04T08:05:01;0.10;;;0.10;;
20110;SDS011;10216;42.658;23.248;2023-04-04T08:07:26;0.10;;;0.10;;
20110;SDS011;10216;42.658;23.248;2023-04-04T08:09:52;0.13;;;0.13;;
20110;SDS011;10216;42.658;23.248;2023-04-04T08:12:19;0.10;;;0.10;;
20110;SDS011;10216;42.658;23.248;2023-04-04T08:14:45;0.30;;;0.20;;
20110;SDS011;10216;42.658;23.248;2023-04-04T08:17:10;0.10;;;0.10;;
20110;SDS011;10216;42.658;23.248;2023-04-04T08:19:36;0.10;;;0.10;;
20110;SDS011;10216;42.658;23.248;2023-04-04T08:22:02;0.10;;;0.10;;
20110;SDS011;10216;42.658;23.248;2023-04-04T08:24:27;0.10;;;0.10;;
20110;SDS011;10216;42.658;23.248;2023-04-04T08:26:52;0.10;;;0.10;;
20110;SDS011;10216;42.658;23.248;2023-04-04T08:29:18;0.10;;;0.10;;
20110;SDS011;10216;42.658;23.248;2023-04-04T08:31:43;0.10;;;0.10;;
20110;SDS011;10216;42.658;23.248;2023-04-04T08:34:09;0.10;;;0.10;;
20110;SDS011;10216;42.658;23.248;2023-04-04T08:36:34;0.10;;;0.10;;
20110;SDS011;10216;42.658;23.248;2023-04-04T08:38:59;0.10;;;0.10;;
20110;SDS011;10216;42.658;23.248;2023-04-04T08:41:25;1.47;;;0.37;;
20110;SDS011;10216;42.658;23.248;2023-04-04T08:43:52;0.10;;;0.10;;
20110;SDS011;10216;42.658;23.248;2023-04-04T08:46:20;0.10;;;0.10;;
20110;SDS011;10216;42.658;23.248;2023-04-04T08:48:45;0.50;;;0.50;;
20110;SDS011;10216;42.658;23.248;2023-04-04T08:51:12;0.30;;;0.30;;
20110;SDS011;10216;42.658;23.248;2023-04-04T08:53:38;0.10;;;0.10;;
20110;SDS011;10216;42.658;23.248;2023-04-04T08:56:03;0.10;;;0.10;;
20110;SDS011;10216;42.658;23.248;2023-04-04T08:58:29;0.10;;;0.10;;
20110;SDS011;10216;42.658;23.248;2023-04-04T09:00:54;0.10;;;0.10;;
20110;SDS011;10216;42.658;23.248;2023-04-04T09:03:24;0.63;;;0.63;;
20110;SDS011;10216;42.658;23.248;2023-04-04T09:05:54;0.10;;;0.10;;
20110;SDS011;10216;42.658;23.248;2023-04-04T09:08:20;0.20;;;0.20;;
20110;SDS011;10216;42.658;23.248;2023-04-04T09:10:47;0.10;;;0.10;;
20110;SDS011;10216;42.658;23.248;2023-04-04T09:13:13;0.10;;;0.10;;
20110;SDS011;10216;42.658;23.248;2023-04-04T09:15:39;0.10;;;0.10;;
20110;SDS011;10216;42.658;23.248;2023-04-04T09:18:06;0.10;;;0.10;;
20110;SDS011;10216;42.658;23.248;2023-04-04T09:22:57;0.10;;;0.10;;
20110;SDS011;10216;42.658;23.248;2023-04-04T09:25:22;0.10;;;0.10;;
20110;SDS011;10216;42.658;23.248;2023-04-04T09:27:47;0.10;;;0.10;;
20110;SDS011;10216;42.658;23.248;2023-04-04T09:30:14;0.10;;;0.10;;
20110;SDS011;10216;42.658;23.248;2023-04-04T09:32:39;0.10;;;0.10;;
20110;SDS011;10216;42.658;23.248;2023-04-04T09:35:05;0.13;;;0.10;;
20110;SDS011;10216;42.658;23.248;2023-04-04T09:37:30;0.10;;;0.10;;
20110;SDS011;10216;42.658;23.248;2023-04-04T09:39:56;0.10;;;0.10;;
20110;SDS011;10216;42.658;23.248;2023-04-04T09:42:21;0.20;;;0.20;;
20110;SDS011;10216;42.658;23.248;2023-04-04T09:44:48;0.10;;;0.10;;
20110;SDS011;10216;42.658;23.248;2023-04-04T09:49:48;0.30;;;0.30;;
20110;SDS011;10216;42.658;23.248;2023-04-04T09:52:21;0.10;;;0.10;;
20110;SDS011;10216;42.658;23.248;2023-04-04T09:54:55;0.30;;;0.30;;
20110;SDS011;10216;42.658;23.248;2023-04-04T09:57:22;0.43;;;0.43;;
20110;SDS011;10216;42.658;23.248;2023-04-04T09:59:47;0.10;;;0.10;;
20110;SDS011;10216;42.658;23.248;2023-04-04T10:02:13;0.10;;;0.10;;
20110;SDS011;10216;42.658;23.248;2023-04-04T10:04:38;0.30;;;0.30;;
20110;SDS011;10216;42.658;23.248;2023-04-04T10:07:03;0.13;;;0.13;;
20110;SDS011;10216;42.658;23.248;2023-04-04T10:09:28;0.20;;;0.20;;
20110;SDS011;10216;42.658;23.248;2023-04-04T10:12:06;0.17;;;0.17;;
20110;SDS011;10216;42.658;23.248;2023-04-04T10:14:35;0.17;;;0.17;;
20110;SDS011;10216;42.658;23.248;2023-04-04T10:17:07;0.17;;;0.17;;
20110;SDS011;10216;42.658;23.248;2023-04-04T10:19:35;0.47;;;0.40;;
20110;SDS011;10216;42.658;23.248;2023-04-04T10:22:01;0.13;;;0.13;;
20110;SDS011;10216;42.658;23.248;2023-04-04T10:24:26;0.83;;;0.20;;
20110;SDS011;10216;42.658;23.248;2023-04-04T10:26:52;0.10;;;0.10;;
20110;SDS011;10216;42.658;23.248;2023-04-04T10:29:19;0.57;;;0.40;;
20110;SDS011;10216;42.658;23.248;2023-04-04T10:31:45;0.40;;;0.40;;
20110;SDS011;10216;42.658;23.248;2023-04-04T10:34:54;0.40;;;0.40;;
20110;SDS011;10216;42.658;23.248;2023-04-04T10:37:51;0.30;;;0.30;;
20110;SDS011;10216;42.658;23.248;2023-04-04T10:40:00;0.20;;;0.20;;
20110;SDS011;10216;42.658;23.248;2023-04-04T10:42:29;0.10;;;0.10;;
20110;SDS011;10216;42.658;23.248;2023-04-04T10:44:58;0.10;;;0.10;;
20110;SDS011;10216;42.658;23.248;2023-04-04T10:47:25;0.13;;;0.13;;
20110;SDS011;10216;42.658;23.248;2023-04-04T10:49:53;0.20;;;0.20;;
20110;SDS011;10216;42.658;23.248;2023-04-04T10:52:19;0.10;;;0.10;;
20110;SDS011;10216;42.658;23.248;2023-04-04T10:54:45;0.10;;;0.10;;
20110;SDS011;10216;42.658;23.248;2023-04-04T10:57:12;0.17;;;0.17;;
20110;SDS011;10216;42.658;23.248;2023-04-04T11:07:43;0.63;;;0.20;;
20110;SDS011;10216;42.658;23.248;2023-04-04T11:10:12;0.37;;;0.37;;
20110;SDS011;10216;42.658;23.248;2023-04-04T11:12:41;0.10;;;0.10;;
20110;SDS011;10216;42.658;23.248;2023-04-04T11:15:09;0.20;;;0.20;;
20110;SDS011;10216;42.658;23.248;2023-04-04T11:20:07;0.20;;;0.20;;
20110;SDS011;10216;42.658;23.248;2023-04-04T11:22:33;0.20;;;0.20;;
20110;SDS011;10216;42.658;23.248;2023-04-04T11:25:00;0.17;;;0.17;;
20110;SDS011;10216;42.658;23.248;2023-04-04T11:27:45;0.10;;;0.10;;
20110;SDS011;10216;42.658;23.248;2023-04-04T11:30:13;0.30;;;0.30;;
20110;SDS011;10216;42.658;23.248;2023-04-04T11:32:41;0.40;;;0.40;;
20110;SDS011;10216;42.658;23.248;2023-04-04T11:35:08;0.10;;;0.10;;
20110;SDS011;10216;42.658;23.248;2023-04-04T11:37:41;0.10;;;0.10;;
20110;SDS011;10216;42.658;23.248;2023-04-04T11:40:08;0.10;;;0.10;;
20110;SDS011;10216;42.658;23.248;2023-04-04T11:42:33;0.27;;;0.27;;
20110;SDS011;10216;42.658;23.248;2023-04-04T11:45:03;0.10;;;0.10;;
20110;SDS011;10216;42.658;23.248;2023-04-04T11:47:28;0.30;;;0.30;;
20110;SDS011;10216;42.658;23.248;2023-04-04T11:49:55;0.10;;;0.10;;
20110;SDS011;10216;42.658;23.248;2023-04-04T11:52:20;0.17;;;0.17;;
20110;SDS011;10216;42.658;23.248;2023-04-04T11:54:47;2.33;;;0.37;;
20110;SDS011;10216;42.658;23.248;2023-04-04T11:57:13;0.10;;;0.10;;
20110;SDS011;10216;42.658;23.248;2023-04-04T11:59:40;0.20;;;0.20;;
20110;SDS011;10216;42.658;23.248;2023-04-04T12:02:06;0.10;;;0.10;;
20110;SDS011;10216;42.658;23.248;2023-04-04T12:04:31;0.10;;;0.10;;
20110;SDS011;10216;42.658;23.248;2023-04-04T12:06:56;0.40;;;0.40;;
20110;SDS011;10216;42.658;23.248;2023-04-04T12:09:24;0.10;;;0.10;;
20110;SDS011;10216;42.658;23.248;2023-04-04T12:11:49;0.10;;;0.10;;
20110;SDS011;10216;42.658;23.248;2023-04-04T12:14:16;0.13;;;0.13;;
20110;SDS011;10216;42.658;23.248;2023-04-04T12:16:42;0.10;;;0.10;;
20110;SDS011;10216;42.658;23.248;2023-04-04T12:19:07;0.10;;;0.10;;
20110;SDS011;10216;42.658;23.248;2023-04-04T12:21:32;0.23;;;0.23;;
20110;SDS011;10216;42.658;23.248;2023-04-04T12:23:58;0.10;;;0.10;;
20110;SDS011;10216;42.658;23.248;2023-04-04T12:26:24;0.30;;;0.30;;
20110;SDS011;10216;42.658;23.248;2023-04-04T12:28:53;0.17;;;0.17;;
20110;SDS011;10216;42.658;23.248;2023-04-04T12:31:21;0.10;;;0.10;;
20110;SDS011;10216;42.658;23.248;2023-04-04T12:33:46;0.20;;;0.20;;
20110;SDS011;10216;42.658;23.248;2023-04-04T12:36:11;0.20;;;0.20;;
20110;SDS011;10216;42.658;23.248;2023-04-04T12:41:22;0.20;;;0.20;;
20110;SDS011;10216;42.658;23.248;2023-04-04T12:43:47;0.20;;;0.20;;
20110;SDS011;10216;42.658;23.248;2023-04-04T12:46:14;0.10;;;0.10;;
20110;SDS011;10216;42.658;23.248;2023-04-04T12:48:40;0.10;;;0.10;;
20110;SDS011;10216;42.658;23.248;2023-04-04T12:51:05;0.30;;;0.30;;
20110;SDS011;10216;42.658;23.248;2023-04-04T12:53:32;0.10;;;0.10;;
20110;SDS011;10216;42.658;23.248;2023-04-04T12:56:01;0.10;;;0.10;;
20110;SDS011;10216;42.658;23.248;2023-04-04T12:58:27;0.30;;;0.30;;
20110;SDS011;10216;42.658;23.248;2023-04-04T13:00:53;0.10;;;0.10;;
20110;SDS011;10216;42.658;23.248;2023-04-04T13:03:19;0.10;;;0.10;;
20110;SDS011;10216;42.658;23.248;2023-04-04T13:05:46;0.10;;;0.10;;
20110;SDS011;10216;42.658;23.248;2023-04-04T13:08:12;0.20;;;0.20;;
20110;SDS011;10216;42.658;23.248;2023-04-04T13:13:36;0.10;;;0.10;;
20110;SDS011;10216;42.658;23.248;2023-04-04T13:16:06;0.33;;;0.33;;
20110;SDS011;10216;42.658;23.248;2023-04-04T13:18:34;0.20;;;0.20;;
20110;SDS011;10216;42.658;23.248;2023-04-04T13:21:02;0.10;;;0.10;;
20110;SDS011;10216;42.658;23.248;2023-04-04T13:23:27;0.10;;;0.10;;
20110;SDS011;10216;42.658;23.248;2023-04-04T13:25:53;0.20;;;0.20;;
20110;SDS011;10216;42.658;23.248;2023-04-04T13:28:18;0.10;;;0.10;;
20110;SDS011;10216;42.658;23.248;2023-04-04T13:30:43;0.53;;;0.53;;
20110;SDS011;10216;42.658;23.248;2023-04-04T13:33:13;0.10;;;0.10;;
20110;SDS011;10216;42.658;23.248;2023-04-04T13:35:38;0.10;;;0.10;;
20110;SDS011;10216;42.658;23.248;2023-04-04T13:38:04;0.30;;;0.30;;
20110;SDS011;10216;42.658;23.248;2023-04-04T13:40:31;0.20;;;0.20;;
20110;SDS011;10216;42.658;23.248;2023-04-04T13:42:57;0.10;;;0.10;;
20110;SDS011;10216;42.658;23.248;2023-04-04T13:45:22;0.10;;;0.10;;
20110;SDS011;10216;42.658;23.248;2023-04-04T13:47:47;0.10;;;0.10;;
20110;SDS011;10216;42.658;23.248;2023-04-04T13:50:13;0.20;;;0.20;;
20110;SDS011;10216;42.658;23.248;2023-04-04T13:52:38;0.40;;;0.40;;
20110;SDS011;10216;42.658;23.248;2023-04-04T13:55:03;0.10;;;0.10;;
20110;SDS011;10216;42.658;23.248;2023-04-04T13:57:30;0.20;;;0.20;;
20110;SDS011;10216;42.658;23.248;2023-04-04T13:59:55;0.30;;;0.30;;
20110;SDS011;10216;42.658;23.248;2023-04-04T14:02:20;0.10;;;0.10;;
20110;SDS011;10216;42.658;23.248;2023-04-04T14:04:46;0.30;;;0.30;;
20110;SDS011;10216;42.658;23.248;2023-04-04T14:07:11;0.40;;;0.40;;
20110;SDS011;10216;42.658;23.248;2023-04-04T14:09:37;0.37;;;0.37;;
20110;SDS011;10216;42.658;23.248;2023-04-04T14:12:02;0.30;;;0.30;;
20110;SDS011;10216;42.658;23.248;2023-04-04T14:14:27;2.30;;;0.73;;
20110;SDS011;10216;42.658;23.248;2023-04-04T14:16:52;1.20;;;1.03;;
20110;SDS011;10216;42.658;23.248;2023-04-04T14:19:17;0.60;;;0.60;;
20110;SDS011;10216;42.658;23.248;2023-04-04T14:21:43;0.50;;;0.50;;
20110;SDS011;10216;42.658;23.248;2023-04-04T14:24:08;1.13;;;0.33;;
20110;SDS011;10216;42.658;23.248;2023-04-04T14:26:33;0.60;;;0.57;;
20110;SDS011;10216;42.658;23.248;2023-04-04T14:29:00;0.50;;;0.50;;
20110;SDS011;10216;42.658;23.248;2023-04-04T14:31:26;0.43;;;0.43;;
20110;SDS011;10216;42.658;23.248;2023-04-04T14:33:51;0.37;;;0.37;;
20110;SDS011;10216;42.658;23.248;2023-04-04T14:36:17;0.40;;;0.40;;
20110;SDS011;10216;42.658;23.248;2023-04-04T14:38:45;0.47;;;0.47;;
20110;SDS011;10216;42.658;23.248;2023-04-04T14:41:11;0.20;;;0.20;;
20110;SDS011;10216;42.658;23.248;2023-04-04T14:43:37;0.60;;;0.60;;
20110;SDS011;10216;42.658;23.248;2023-04-04T14:46:03;0.87;;;0.87;;
20110;SDS011;10216;42.658;23.248;2023-04-04T14:48:28;0.93;;;0.50;;